createdAt,value
2023-05-01T00:00:40.000Z,0
2023-05-01T00:01:54.000Z,0
2023-05-01T00:03:08.249Z,0
2023-05-01T00:04:22.681Z,0
2023-05-01T00:05:37.000Z,0
2023-05-01T00:06:51.661Z,0
2023-05-01T00:08:06.000Z,0
2023-05-01T00:09:20.000Z,0
2023-05-01T00:10:35.000Z,0
2023-05-01T00:11:49.000Z,0
2023-05-01T00:13:03.000Z,0
2023-05-01T00:14:18.000Z,0
2023-05-01T00:15:32.000Z,0
2023-05-01T00:18:01.850Z,0
2023-05-01T00:19:15.000Z,0
2023-05-01T00:20:29.000Z,0
2023-05-01T00:21:44.000Z,0
2023-05-01T00:22:58.000Z,0
2023-05-01T00:24:13.000Z,0
2023-05-01T00:25:27.000Z,0
2023-05-01T00:27:56.000Z,0
2023-05-01T00:29:11.156Z,0
2023-05-01T00:30:25.000Z,0
2023-05-01T00:31:40.000Z,0
2023-05-01T00:32:54.597Z,0
2023-05-01T00:34:09.072Z,0
2023-05-01T00:35:23.000Z,0
2023-05-01T00:36:37.000Z,0
2023-05-01T00:37:51.000Z,0
2023-05-01T00:39:06.000Z,0
2023-05-01T00:40:20.000Z,0
2023-05-01T00:41:34.000Z,0
2023-05-01T00:42:49.000Z,0
2023-05-01T00:44:03.000Z,0
2023-05-01T00:45:18.000Z,0
2023-05-01T00:46:32.000Z,0
2023-05-01T00:47:47.000Z,0
2023-05-01T00:49:01.000Z,0
2023-05-01T00:50:16.000Z,0
2023-05-01T00:51:30.000Z,0
2023-05-01T00:52:45.000Z,0
2023-05-01T00:53:58.796Z,0
2023-05-01T00:55:13.000Z,0
2023-05-01T00:57:42.000Z,0
2023-05-01T00:58:56.000Z,0
2023-05-01T01:00:11.000Z,0
2023-05-01T01:01:25.000Z,0
2023-05-01T01:02:40.000Z,0
2023-05-01T01:03:54.000Z,0
2023-05-01T01:05:08.000Z,0
2023-05-01T01:06:23.000Z,0
2023-05-01T01:07:37.000Z,0
2023-05-01T01:08:52.000Z,0
2023-05-01T01:10:06.000Z,0
2023-05-01T01:11:21.000Z,0
2023-05-01T01:12:34.000Z,0
2023-05-01T01:13:49.000Z,0
2023-05-01T01:15:03.000Z,0
2023-05-01T01:16:18.000Z,0
2023-05-01T01:17:32.000Z,0
2023-05-01T01:18:47.263Z,0
2023-05-01T01:20:01.000Z,0
2023-05-01T01:21:16.209Z,0
2023-05-01T01:22:30.658Z,0
2023-05-01T01:23:45.137Z,0
2023-05-01T01:24:59.000Z,0
2023-05-01T01:26:14.000Z,0
2023-05-01T01:27:28.000Z,0
2023-05-01T01:28:42.000Z,0
2023-05-01T01:29:57.000Z,0
2023-05-01T01:32:25.000Z,0
2023-05-01T01:33:39.000Z,0
2023-05-01T01:34:54.000Z,0
2023-05-01T01:36:08.000Z,0
2023-05-01T01:37:23.000Z,0
2023-05-01T01:38:37.000Z,0
2023-05-01T01:39:52.000Z,0
2023-05-01T01:42:21.000Z,0
2023-05-01T01:43:35.729Z,0
2023-05-01T01:44:50.000Z,0
2023-05-01T01:46:04.000Z,0
2023-05-01T01:47:19.000Z,0
2023-05-01T01:48:32.682Z,0
2023-05-01T01:49:47.000Z,0
2023-05-01T01:51:01.000Z,0
2023-05-01T01:52:16.000Z,0
2023-05-01T01:53:30.596Z,0
2023-05-01T01:54:45.000Z,0
2023-05-01T01:57:13.000Z,0
2023-05-01T01:58:28.000Z,0
2023-05-01T01:59:42.000Z,0
2023-05-01T02:02:11.000Z,0
2023-05-01T02:03:26.000Z,0
2023-05-01T02:04:40.000Z,0
2023-05-01T02:05:55.000Z,0
2023-05-01T02:07:08.000Z,0
2023-05-01T02:08:22.478Z,0
2023-05-01T02:09:36.000Z,0
2023-05-01T02:10:51.377Z,0
2023-05-01T02:12:05.836Z,0
2023-05-01T02:13:20.297Z,0
2023-05-01T02:14:34.000Z,0
2023-05-01T02:15:49.000Z,0
2023-05-01T02:17:03.000Z,0
2023-05-01T02:18:18.169Z,0
2023-05-01T02:19:32.000Z,0
2023-05-01T02:20:47.000Z,0
2023-05-01T02:22:01.000Z,0
2023-05-01T02:23:15.000Z,0
2023-05-01T02:24:29.000Z,0
2023-05-01T02:25:44.129Z,0
2023-05-01T02:26:58.000Z,0
2023-05-01T02:28:13.000Z,0
2023-05-01T02:29:27.000Z,0
2023-05-01T02:30:42.000Z,0
2023-05-01T02:31:55.000Z,0
2023-05-01T02:33:10.046Z,0
2023-05-01T02:34:24.000Z,0
2023-05-01T02:35:39.000Z,0
2023-05-01T02:36:53.000Z,0
2023-05-01T02:38:07.000Z,0
2023-05-01T02:39:22.000Z,0
2023-05-01T02:40:36.000Z,0
2023-05-01T02:41:51.000Z,0
2023-05-01T02:43:05.000Z,0
2023-05-01T02:44:20.000Z,0
2023-05-01T02:45:34.000Z,0
2023-05-01T02:46:49.000Z,0
2023-05-01T02:48:02.000Z,0
2023-05-01T02:49:17.254Z,0
2023-05-01T02:51:46.121Z,0
2023-05-01T02:53:00.000Z,0
2023-05-01T02:54:15.000Z,0
2023-05-01T02:56:43.000Z,0
2023-05-01T02:57:58.370Z,0
2023-05-01T02:59:12.000Z,0
2023-05-01T03:00:27.000Z,0
2023-05-01T03:01:41.000Z,0
2023-05-01T03:02:56.000Z,0
2023-05-01T03:04:10.000Z,0
2023-05-01T03:06:39.000Z,0
2023-05-01T03:07:53.000Z,0
2023-05-01T03:09:06.000Z,0
2023-05-01T03:10:21.000Z,0
2023-05-01T03:11:35.000Z,0
2023-05-01T03:12:49.000Z,0
2023-05-01T03:14:04.000Z,0
2023-05-01T03:15:18.000Z,0
2023-05-01T03:16:33.000Z,0
2023-05-01T03:17:47.000Z,0
2023-05-01T03:19:02.000Z,0
2023-05-01T03:20:16.000Z,0
2023-05-01T03:21:30.000Z,0
2023-05-01T03:22:44.397Z,0
2023-05-01T03:23:58.000Z,0
2023-05-01T03:25:12.000Z,0
2023-05-01T03:26:26.000Z,0
2023-05-01T03:27:41.000Z,0
2023-05-01T03:28:55.000Z,0
2023-05-01T03:30:10.000Z,5
2023-05-01T03:31:24.000Z,5
2023-05-01T03:33:52.000Z,5
2023-05-01T03:35:05.000Z,5
2023-05-01T03:36:20.000Z,5
2023-05-01T03:37:34.000Z,5
2023-05-01T03:38:49.000Z,5
2023-05-01T03:40:03.000Z,5
2023-05-01T03:41:17.000Z,11
2023-05-01T03:42:32.000Z,11
2023-05-01T03:43:46.000Z,11
2023-05-01T03:45:01.000Z,11
2023-05-01T03:47:30.022Z,16
2023-05-01T03:48:44.452Z,16
2023-05-01T03:49:58.000Z,16
2023-05-01T03:51:13.000Z,22
2023-05-01T03:52:26.802Z,22
2023-05-01T03:53:41.000Z,28
2023-05-01T03:54:55.000Z,50
2023-05-01T03:56:10.000Z,56
2023-05-01T03:57:24.000Z,39
2023-05-01T03:58:38.000Z,39
2023-05-01T03:59:53.000Z,39
2023-05-01T04:01:07.000Z,39
2023-05-01T04:02:22.000Z,45
2023-05-01T04:03:36.000Z,50
2023-05-01T04:04:50.000Z,50
2023-05-01T04:06:05.000Z,56
2023-05-01T04:07:19.000Z,61
2023-05-01T04:08:34.000Z,61
2023-05-01T04:09:47.000Z,61
2023-05-01T04:11:02.000Z,73
2023-05-01T04:12:16.561Z,78
2023-05-01T04:13:30.000Z,84
2023-05-01T04:14:45.000Z,90
2023-05-01T04:15:59.000Z,140
2023-05-01T04:17:14.000Z,191
2023-05-01T04:18:28.000Z,146
2023-05-01T04:19:43.000Z,112
2023-05-01T04:20:57.000Z,101
2023-05-01T04:22:11.000Z,101
2023-05-01T04:23:26.000Z,101
2023-05-01T04:24:40.000Z,106
2023-05-01T04:25:55.000Z,106
2023-05-01T04:27:08.000Z,106
2023-05-01T04:28:23.000Z,106
2023-05-01T04:29:37.000Z,106
2023-05-01T04:30:51.000Z,106
2023-05-01T04:32:06.000Z,112
2023-05-01T04:33:20.000Z,112
2023-05-01T04:34:35.000Z,118
2023-05-01T04:37:03.000Z,123
2023-05-01T04:38:18.000Z,135
2023-05-01T04:39:32.000Z,140
2023-05-01T04:40:47.000Z,146
2023-05-01T04:42:01.000Z,146
2023-05-01T04:43:16.000Z,151
2023-05-01T04:44:30.000Z,157
2023-05-01T04:45:43.000Z,163
2023-05-01T04:46:58.000Z,163
2023-05-01T04:48:12.000Z,168
2023-05-01T04:49:27.000Z,174
2023-05-01T04:50:41.625Z,180
2023-05-01T04:51:56.000Z,180
2023-05-01T04:53:10.456Z,180
2023-05-01T04:54:24.864Z,185
2023-05-01T04:55:39.000Z,191
2023-05-01T04:56:53.000Z,202
2023-05-01T04:58:08.000Z,213
2023-05-01T04:59:22.000Z,219
2023-05-01T05:00:36.000Z,213
2023-05-01T05:01:50.000Z,213
2023-05-01T05:03:04.000Z,219
2023-05-01T05:04:19.000Z,236
2023-05-01T05:05:33.000Z,264
2023-05-01T05:06:48.000Z,286
2023-05-01T05:08:02.000Z,371
2023-05-01T05:09:16.000Z,455
2023-05-01T05:10:31.000Z,596
2023-05-01T05:11:45.000Z,810
2023-05-01T05:13:00.000Z,770
2023-05-01T05:15:29.000Z,618
2023-05-01T05:16:43.000Z,720
2023-05-01T05:17:56.956Z,759
2023-05-01T05:19:11.385Z,613
2023-05-01T05:20:25.000Z,506
2023-05-01T05:21:40.000Z,343
2023-05-01T05:22:54.000Z,427
2023-05-01T05:24:09.000Z,596
2023-05-01T05:25:23.000Z,742
2023-05-01T05:26:37.852Z,866
2023-05-01T05:27:52.000Z,905
2023-05-01T05:29:06.000Z,601
2023-05-01T05:30:21.000Z,331
2023-05-01T05:31:35.000Z,292
2023-05-01T05:32:49.000Z,275
2023-05-01T05:34:04.000Z,281
2023-05-01T05:35:18.000Z,270
2023-05-01T05:36:33.000Z,275
2023-05-01T05:37:46.000Z,275
2023-05-01T05:40:15.000Z,298
2023-05-01T05:41:29.000Z,320
2023-05-01T05:42:44.000Z,343
2023-05-01T05:43:58.000Z,348
2023-05-01T05:45:13.000Z,365
2023-05-01T05:46:27.000Z,393
2023-05-01T05:47:42.000Z,466
2023-05-01T05:48:56.000Z,708
2023-05-01T05:50:10.000Z,933
2023-05-01T05:51:25.000Z,1102
2023-05-01T05:52:39.658Z,922
2023-05-01T05:53:54.000Z,939
2023-05-01T05:55:08.000Z,871
2023-05-01T05:56:22.000Z,956
2023-05-01T05:57:37.000Z,950
2023-05-01T05:58:51.000Z,928
2023-05-01T06:00:05.000Z,1080
2023-05-01T06:01:19.000Z,1102
2023-05-01T06:02:34.000Z,1147
2023-05-01T06:03:48.508Z,1136
2023-05-01T06:05:02.000Z,1113
2023-05-01T06:06:17.318Z,1051
2023-05-01T06:07:31.000Z,1006
2023-05-01T06:08:46.157Z,911
2023-05-01T06:10:00.000Z,1012
2023-05-01T06:11:15.000Z,877
2023-05-01T06:12:29.000Z,787
2023-05-01T06:13:43.000Z,736
2023-05-01T06:14:58.000Z,804
2023-05-01T06:16:11.754Z,691
2023-05-01T06:17:26.000Z,675
2023-05-01T06:18:40.584Z,680
2023-05-01T06:19:55.000Z,765
2023-05-01T06:21:09.000Z,787
2023-05-01T06:22:23.000Z,916
2023-05-01T06:23:38.000Z,961
2023-05-01T06:24:52.000Z,1074
2023-05-01T06:26:07.000Z,945
2023-05-01T06:27:21.000Z,781
2023-05-01T06:28:35.000Z,984
2023-05-01T06:29:50.315Z,1001
2023-05-01T06:31:04.000Z,990
2023-05-01T06:32:19.000Z,1125
2023-05-01T06:34:47.000Z,1147
2023-05-01T06:36:02.000Z,1310
2023-05-01T06:37:16.000Z,1395
2023-05-01T06:38:31.000Z,1428
2023-05-01T06:39:45.000Z,1316
2023-05-01T06:41:00.038Z,1333
2023-05-01T06:42:14.436Z,1440
2023-05-01T06:43:28.000Z,1541
2023-05-01T06:44:43.000Z,1445
2023-05-01T06:45:56.000Z,1428
2023-05-01T06:47:11.000Z,1670
2023-05-01T06:48:25.000Z,1861
2023-05-01T06:49:40.000Z,1648
2023-05-01T06:50:54.453Z,1569
2023-05-01T06:52:08.000Z,1518
2023-05-01T06:54:37.000Z,1552
2023-05-01T06:55:52.000Z,1653
2023-05-01T06:57:06.000Z,1805
2023-05-01T06:58:20.000Z,1738
2023-05-01T06:59:35.000Z,1901
2023-05-01T07:00:49.000Z,1816
2023-05-01T07:02:04.000Z,1861
2023-05-01T07:03:18.000Z,1901
2023-05-01T07:04:33.000Z,1845
2023-05-01T07:05:46.000Z,2008
2023-05-01T07:07:00.000Z,1873
2023-05-01T07:08:15.000Z,1923
2023-05-01T07:09:29.791Z,1833
2023-05-01T07:10:44.000Z,1710
2023-05-01T07:11:58.000Z,1771
2023-05-01T07:13:13.000Z,1929
2023-05-01T07:14:27.000Z,1771
2023-05-01T07:15:41.000Z,1631
2023-05-01T07:16:56.000Z,1620
2023-05-01T07:18:10.000Z,1895
2023-05-01T07:19:25.000Z,1732
2023-05-01T07:20:39.000Z,1575
2023-05-01T07:21:53.932Z,1451
2023-05-01T07:23:08.000Z,1479
2023-05-01T07:24:21.000Z,1485
2023-05-01T07:25:36.000Z,1575
2023-05-01T07:26:50.000Z,1496
2023-05-01T07:28:05.000Z,1597
2023-05-01T07:29:19.000Z,1558
2023-05-01T07:30:33.000Z,1620
2023-05-01T07:31:48.000Z,1552
2023-05-01T07:33:02.000Z,1575
2023-05-01T07:34:17.000Z,1665
2023-05-01T07:35:31.000Z,1631
2023-05-01T07:36:46.000Z,1608
2023-05-01T07:38:00.000Z,1535
2023-05-01T07:39:14.000Z,1648
2023-05-01T07:40:28.000Z,1648
2023-05-01T07:41:42.000Z,1288
2023-05-01T07:42:57.000Z,1423
2023-05-01T07:44:11.000Z,1451
2023-05-01T07:45:26.000Z,1440
2023-05-01T07:46:40.000Z,1530
2023-05-01T07:47:54.000Z,1485
2023-05-01T07:49:08.000Z,1546
2023-05-01T07:50:22.000Z,1659
2023-05-01T07:51:37.000Z,1687
2023-05-01T07:52:51.000Z,1586
2023-05-01T07:54:06.000Z,1501
2023-05-01T07:55:20.000Z,1608
2023-05-01T07:56:34.000Z,1591
2023-05-01T07:57:49.000Z,1563
2023-05-01T07:59:03.000Z,1603
2023-05-01T08:00:18.000Z,1591
2023-05-01T08:01:32.535Z,1648
2023-05-01T08:02:46.000Z,1676
2023-05-01T08:04:00.000Z,1676
2023-05-01T08:05:14.000Z,1535
2023-05-01T08:06:29.000Z,1693
2023-05-01T08:07:43.000Z,1693
2023-05-01T08:08:58.000Z,1597
2023-05-01T08:10:12.000Z,1501
2023-05-01T08:11:26.000Z,1636
2023-05-01T08:12:41.000Z,1738
2023-05-01T08:13:55.000Z,1535
2023-05-01T08:15:10.000Z,1451
2023-05-01T08:16:24.634Z,1316
2023-05-01T08:17:39.000Z,1170
2023-05-01T08:18:53.000Z,1293
2023-05-01T08:20:07.000Z,1220
2023-05-01T08:21:21.000Z,1288
2023-05-01T08:22:35.000Z,1068
2023-05-01T08:23:50.233Z,1434
2023-05-01T08:25:04.000Z,1473
2023-05-01T08:26:19.000Z,1485
2023-05-01T08:27:33.000Z,1524
2023-05-01T08:28:47.000Z,1428
2023-05-01T08:30:02.309Z,1423
2023-05-01T08:31:16.000Z,1462
2023-05-01T08:32:31.000Z,1395
2023-05-01T08:33:45.545Z,1254
2023-05-01T08:34:59.000Z,1282
2023-05-01T08:36:13.000Z,1276
2023-05-01T08:37:27.000Z,1276
2023-05-01T08:38:42.000Z,1411
2023-05-01T08:39:56.000Z,1389
2023-05-01T08:41:11.000Z,1355
2023-05-01T08:42:25.000Z,1383
2023-05-01T08:43:39.000Z,1378
2023-05-01T08:44:54.000Z,1276
2023-05-01T08:46:08.000Z,1355
2023-05-01T08:47:23.000Z,1344
2023-05-01T08:48:37.000Z,1456
2023-05-01T08:49:52.000Z,1383
2023-05-01T08:51:06.000Z,1361
2023-05-01T08:52:20.000Z,1378
2023-05-01T08:53:34.000Z,1293
2023-05-01T08:54:48.000Z,1248
2023-05-01T08:56:03.000Z,1198
2023-05-01T08:57:17.648Z,1175
2023-05-01T08:58:32.000Z,1141
2023-05-01T08:59:46.000Z,1254
2023-05-01T09:01:00.000Z,1074
2023-05-01T09:02:15.000Z,1237
2023-05-01T09:03:29.000Z,736
2023-05-01T09:04:44.000Z,376
2023-05-01T09:05:58.000Z,348
2023-05-01T09:07:12.000Z,337
2023-05-01T09:08:26.493Z,326
2023-05-01T09:09:40.000Z,320
2023-05-01T09:10:55.000Z,320
2023-05-01T09:12:09.000Z,315
2023-05-01T09:13:24.000Z,320
2023-05-01T09:14:38.000Z,326
2023-05-01T09:15:52.000Z,331
2023-05-01T09:17:07.000Z,320
2023-05-01T09:18:21.000Z,326
2023-05-01T09:19:36.000Z,337
2023-05-01T09:20:50.000Z,343
2023-05-01T09:22:05.035Z,320
2023-05-01T09:23:19.000Z,315
2023-05-01T09:24:33.000Z,320
2023-05-01T09:25:48.000Z,309
2023-05-01T09:27:01.000Z,315
2023-05-01T09:28:16.000Z,320
2023-05-01T09:29:30.000Z,331
2023-05-01T09:30:45.000Z,331
2023-05-01T09:33:13.000Z,348
2023-05-01T09:34:28.000Z,354
2023-05-01T09:35:42.000Z,360
2023-05-01T09:36:57.000Z,365
2023-05-01T09:38:11.000Z,354
2023-05-01T09:39:25.000Z,354
2023-05-01T09:40:40.000Z,360
2023-05-01T09:41:54.000Z,360
2023-05-01T09:43:09.000Z,365
2023-05-01T09:44:22.000Z,354
2023-05-01T09:45:37.136Z,337
2023-05-01T09:46:51.000Z,343
2023-05-01T09:48:05.000Z,337
2023-05-01T09:49:20.000Z,337
2023-05-01T09:50:34.000Z,331
2023-05-01T09:51:49.000Z,331
2023-05-01T09:53:03.000Z,331
2023-05-01T09:54:18.000Z,331
2023-05-01T09:55:32.000Z,326
2023-05-01T09:56:46.000Z,320
2023-05-01T09:58:01.000Z,326
2023-05-01T09:59:15.000Z,326
2023-05-01T10:00:29.000Z,315
2023-05-01T10:01:43.000Z,315
2023-05-01T10:02:58.000Z,315
2023-05-01T10:04:12.000Z,326
2023-05-01T10:05:26.000Z,331
2023-05-01T10:06:41.000Z,326
2023-05-01T10:07:55.000Z,320
2023-05-01T10:09:10.000Z,331
2023-05-01T10:10:24.000Z,320
2023-05-01T10:11:38.000Z,326
2023-05-01T10:12:53.000Z,331
2023-05-01T10:14:07.000Z,331
2023-05-01T10:15:22.000Z,331
2023-05-01T10:16:35.000Z,320
2023-05-01T10:17:50.000Z,320
2023-05-01T10:19:04.000Z,320
2023-05-01T10:20:18.000Z,309
2023-05-01T10:21:33.368Z,303
2023-05-01T10:22:47.000Z,298
2023-05-01T10:24:02.000Z,298
2023-05-01T10:25:16.000Z,292
2023-05-01T10:26:31.015Z,292
2023-05-01T10:27:45.000Z,292
2023-05-01T10:28:59.000Z,292
2023-05-01T10:30:14.000Z,298
2023-05-01T10:31:28.000Z,292
2023-05-01T10:32:43.000Z,286
2023-05-01T10:33:56.000Z,281
2023-05-01T10:35:11.000Z,270
2023-05-01T10:36:25.000Z,270
2023-05-01T10:37:39.000Z,258
2023-05-01T10:38:54.000Z,253
2023-05-01T10:40:08.000Z,247
2023-05-01T10:41:23.000Z,241
2023-05-01T10:42:37.000Z,236
2023-05-01T10:43:51.000Z,236
2023-05-01T10:45:06.000Z,230
2023-05-01T10:46:20.000Z,225
2023-05-01T10:47:35.000Z,219
2023-05-01T10:48:49.000Z,219
2023-05-01T10:50:04.000Z,213
2023-05-01T10:52:31.000Z,208
2023-05-01T10:53:46.000Z,208
2023-05-01T10:55:00.000Z,202
2023-05-01T10:56:15.000Z,202
2023-05-01T10:57:29.597Z,202
2023-05-01T10:58:44.000Z,202
2023-05-01T10:59:58.000Z,202
2023-05-01T11:01:12.000Z,202
2023-05-01T11:02:27.261Z,208
2023-05-01T11:03:41.000Z,213
2023-05-01T11:04:56.000Z,219
2023-05-01T11:06:10.000Z,225
2023-05-01T11:07:24.000Z,236
2023-05-01T11:08:38.000Z,241
2023-05-01T11:09:52.000Z,247
2023-05-01T11:11:07.000Z,264
2023-05-01T11:12:21.693Z,275
2023-05-01T11:13:36.000Z,281
2023-05-01T11:14:50.000Z,281
2023-05-01T11:16:04.000Z,281
2023-05-01T11:17:19.000Z,275
2023-05-01T11:18:33.000Z,270
2023-05-01T11:19:48.000Z,264
2023-05-01T11:21:02.000Z,253
2023-05-01T11:22:17.000Z,253
2023-05-01T11:23:30.000Z,253
2023-05-01T11:24:44.000Z,247
2023-05-01T11:27:13.756Z,241
2023-05-01T11:28:28.000Z,247
2023-05-01T11:29:42.000Z,247
2023-05-01T11:30:57.000Z,241
2023-05-01T11:32:11.000Z,241
2023-05-01T11:33:25.000Z,236
2023-05-01T11:34:40.000Z,230
2023-05-01T11:35:54.000Z,225
2023-05-01T11:37:09.000Z,219
2023-05-01T11:38:23.000Z,219
2023-05-01T11:39:37.000Z,213
2023-05-01T11:40:52.000Z,208
2023-05-01T11:42:05.000Z,202
2023-05-01T11:43:20.000Z,202
2023-05-01T11:44:34.000Z,202
2023-05-01T11:47:03.503Z,191
2023-05-01T11:48:17.000Z,191
2023-05-01T11:49:32.000Z,185
2023-05-01T11:50:46.000Z,185
2023-05-01T11:52:01.158Z,180
2023-05-01T11:53:15.000Z,180
2023-05-01T11:54:30.000Z,180
2023-05-01T11:55:44.000Z,180
2023-05-01T11:56:57.931Z,180
2023-05-01T11:58:12.000Z,180
2023-05-01T12:00:41.000Z,185
2023-05-01T12:01:55.579Z,191
2023-05-01T12:03:10.000Z,191
2023-05-01T12:04:24.000Z,191
2023-05-01T12:05:38.000Z,191
2023-05-01T12:06:53.000Z,196
2023-05-01T12:08:07.000Z,202
2023-05-01T12:09:22.000Z,208
2023-05-01T12:10:36.000Z,202
2023-05-01T12:11:50.000Z,196
2023-05-01T12:13:04.000Z,196
2023-05-01T12:14:18.000Z,196
2023-05-01T12:15:33.000Z,191
2023-05-01T12:16:47.000Z,185
2023-05-01T12:18:02.000Z,185
2023-05-01T12:19:16.000Z,185
2023-05-01T12:20:30.000Z,185
2023-05-01T12:21:45.000Z,180
2023-05-01T12:22:59.000Z,180
2023-05-01T12:24:14.000Z,174
2023-05-01T12:26:42.964Z,163
2023-05-01T12:27:57.000Z,163
2023-05-01T12:29:10.000Z,163
2023-05-01T12:30:25.000Z,157
2023-05-01T12:31:39.000Z,157
2023-05-01T12:32:54.000Z,157
2023-05-01T12:34:08.000Z,151
2023-05-01T12:35:23.000Z,151
2023-05-01T12:36:37.000Z,151
2023-05-01T12:37:51.000Z,151
2023-05-01T12:39:06.000Z,157
2023-05-01T12:40:20.000Z,157
2023-05-01T12:42:49.000Z,157
2023-05-01T12:44:03.000Z,157
2023-05-01T12:46:32.000Z,157
2023-05-01T12:47:46.000Z,157
2023-05-01T12:49:00.000Z,163
2023-05-01T12:50:15.000Z,163
2023-05-01T12:51:29.502Z,168
2023-05-01T12:52:43.916Z,174
2023-05-01T12:53:58.000Z,180
2023-05-01T12:55:12.000Z,180
2023-05-01T12:56:26.000Z,180
2023-05-01T12:57:40.000Z,185
2023-05-01T12:58:55.000Z,191
2023-05-01T13:00:09.000Z,191
2023-05-01T13:01:23.000Z,196
2023-05-01T13:02:36.000Z,202
2023-05-01T13:03:51.000Z,208
2023-05-01T13:05:05.000Z,213
2023-05-01T13:06:19.000Z,213
2023-05-01T13:07:34.000Z,208
2023-05-01T13:08:48.000Z,208
2023-05-01T13:10:03.000Z,202
2023-05-01T13:11:17.000Z,202
2023-05-01T13:12:31.000Z,202
2023-05-01T13:13:46.000Z,202
2023-05-01T13:15:00.000Z,208
2023-05-01T13:16:15.000Z,208
2023-05-01T13:17:29.000Z,208
2023-05-01T13:18:43.979Z,208
2023-05-01T13:19:57.000Z,208
2023-05-01T13:21:11.000Z,208
2023-05-01T13:22:26.000Z,208
2023-05-01T13:23:40.000Z,208
2023-05-01T13:24:55.000Z,208
2023-05-01T13:26:09.000Z,208
2023-05-01T13:27:24.000Z,208
2023-05-01T13:28:38.000Z,213
2023-05-01T13:29:52.000Z,219
2023-05-01T13:31:07.000Z,225
2023-05-01T13:32:21.660Z,225
2023-05-01T13:33:36.000Z,225
2023-05-01T13:34:50.000Z,225
2023-05-01T13:36:04.000Z,230
2023-05-01T13:37:18.000Z,230
2023-05-01T13:38:32.000Z,230
2023-05-01T13:39:47.000Z,236
2023-05-01T13:41:01.000Z,236
2023-05-01T13:42:16.000Z,241
2023-05-01T13:43:30.000Z,241
2023-05-01T13:44:44.000Z,241
2023-05-01T13:45:59.000Z,241
2023-05-01T13:47:13.000Z,241
2023-05-01T13:48:28.000Z,241
2023-05-01T13:50:56.000Z,236
2023-05-01T13:52:11.000Z,236
2023-05-01T13:53:25.000Z,230
2023-05-01T13:54:40.000Z,230
2023-05-01T13:55:54.000Z,230
2023-05-01T13:57:08.000Z,230
2023-05-01T13:58:22.000Z,236
2023-05-01T13:59:37.000Z,236
2023-05-01T14:00:51.000Z,230
2023-05-01T14:02:05.000Z,236
2023-05-01T14:03:20.000Z,236
2023-05-01T14:04:34.000Z,230
2023-05-01T14:05:49.000Z,230
2023-05-01T14:07:03.481Z,230
2023-05-01T14:08:17.879Z,230
2023-05-01T14:09:32.000Z,230
2023-05-01T14:10:46.000Z,225
2023-05-01T14:12:01.000Z,225
2023-05-01T14:13:15.538Z,225
2023-05-01T14:15:44.000Z,219
2023-05-01T14:16:57.000Z,219
2023-05-01T14:18:12.000Z,219
2023-05-01T14:19:26.000Z,219
2023-05-01T14:20:41.000Z,219
2023-05-01T14:21:55.000Z,213
2023-05-01T14:23:09.000Z,213
2023-05-01T14:24:24.000Z,213
2023-05-01T14:25:38.783Z,213
2023-05-01T14:26:53.000Z,213
2023-05-01T14:28:07.000Z,213
2023-05-01T14:29:22.000Z,213
2023-05-01T14:30:36.000Z,213
2023-05-01T14:31:50.000Z,213
2023-05-01T14:33:05.267Z,213
2023-05-01T14:34:18.000Z,213
2023-05-01T14:35:33.000Z,208
2023-05-01T14:36:47.000Z,208
2023-05-01T14:38:02.000Z,202
2023-05-01T14:39:16.000Z,202
2023-05-01T14:40:30.000Z,196
2023-05-01T14:41:45.000Z,196
2023-05-01T14:42:59.000Z,196
2023-05-01T14:44:14.000Z,191
2023-05-01T14:45:28.000Z,191
2023-05-01T14:46:42.000Z,191
2023-05-01T14:47:57.000Z,191
2023-05-01T14:49:11.000Z,191
2023-05-01T14:50:25.000Z,191
2023-05-01T14:51:39.691Z,191
2023-05-01T14:52:54.000Z,185
2023-05-01T14:54:08.000Z,185
2023-05-01T14:55:22.000Z,185
2023-05-01T14:56:37.356Z,185
2023-05-01T14:57:51.000Z,185
2023-05-01T14:59:06.000Z,185
2023-05-01T15:00:20.000Z,185
2023-05-01T15:01:35.000Z,185
2023-05-01T15:02:49.000Z,185
2023-05-01T15:05:18.000Z,180
2023-05-01T15:06:31.000Z,180
2023-05-01T15:07:46.000Z,174
2023-05-01T15:09:00.000Z,174
2023-05-01T15:10:15.000Z,174
2023-05-01T15:11:29.000Z,168
2023-05-01T15:12:43.858Z,168
2023-05-01T15:13:58.000Z,168
2023-05-01T15:15:12.000Z,168
2023-05-01T15:16:27.000Z,163
2023-05-01T15:17:41.000Z,163
2023-05-01T15:18:55.000Z,163
2023-05-01T15:20:10.340Z,163
2023-05-01T15:21:24.000Z,163
2023-05-01T15:22:38.000Z,157
2023-05-01T15:23:52.000Z,157
2023-05-01T15:25:07.113Z,157
2023-05-01T15:26:21.546Z,157
2023-05-01T15:27:35.000Z,151
2023-05-01T15:28:50.000Z,151
2023-05-01T15:30:04.000Z,146
2023-05-01T15:31:19.195Z,146
2023-05-01T15:32:33.000Z,146
2023-05-01T15:33:48.000Z,140
2023-05-01T15:35:02.000Z,140
2023-05-01T15:36:16.000Z,140
2023-05-01T15:37:31.000Z,140
2023-05-01T15:38:45.000Z,140
2023-05-01T15:40:00.000Z,140
2023-05-01T15:41:13.000Z,140
2023-05-01T15:42:28.000Z,140
2023-05-01T15:43:42.000Z,135
2023-05-01T15:44:56.000Z,135
2023-05-01T15:46:11.000Z,129
2023-05-01T15:47:25.000Z,129
2023-05-01T15:48:40.000Z,123
2023-05-01T15:49:54.000Z,123
2023-05-01T15:51:08.000Z,123
2023-05-01T15:52:23.000Z,123
2023-05-01T15:53:37.000Z,123
2023-05-01T15:54:52.000Z,123
2023-05-01T15:56:06.000Z,123
2023-05-01T15:57:20.000Z,123
2023-05-01T15:58:35.000Z,118
2023-05-01T15:59:48.000Z,118
2023-05-01T16:01:03.000Z,112
2023-05-01T16:02:17.000Z,112
2023-05-01T16:03:32.000Z,106
2023-05-01T16:04:46.000Z,106
2023-05-01T16:06:00.000Z,106
2023-05-01T16:07:14.000Z,101
2023-05-01T16:08:28.000Z,101
2023-05-01T16:09:43.000Z,95
2023-05-01T16:10:57.000Z,95
2023-05-01T16:12:12.000Z,95
2023-05-01T16:13:26.000Z,95
2023-05-01T16:14:41.000Z,95
2023-05-01T16:15:55.000Z,90
2023-05-01T16:18:24.000Z,90
2023-05-01T16:19:38.000Z,90
2023-05-01T16:20:53.000Z,84
2023-05-01T16:22:07.000Z,84
2023-05-01T16:23:21.000Z,84
2023-05-01T16:24:35.000Z,78
2023-05-01T16:25:49.000Z,78
2023-05-01T16:27:04.000Z,73
2023-05-01T16:28:18.000Z,73
2023-05-01T16:29:33.000Z,73
2023-05-01T16:30:47.000Z,73
2023-05-01T16:32:01.000Z,67
2023-05-01T16:33:16.000Z,67
2023-05-01T16:34:30.758Z,61
2023-05-01T16:35:45.000Z,61
2023-05-01T16:36:59.000Z,67
2023-05-01T16:38:14.000Z,67
2023-05-01T16:39:28.000Z,61
2023-05-01T16:40:41.000Z,61
2023-05-01T16:41:56.000Z,61
2023-05-01T16:44:25.180Z,61
2023-05-01T16:45:39.000Z,61
2023-05-01T16:46:54.000Z,61
2023-05-01T16:48:08.000Z,61
2023-05-01T16:49:22.000Z,61
2023-05-01T16:50:37.000Z,61
2023-05-01T16:51:51.000Z,61
2023-05-01T16:53:06.000Z,56
2023-05-01T16:54:20.000Z,56
2023-05-01T16:55:34.000Z,56
2023-05-01T16:56:49.000Z,50
2023-05-01T16:59:18.140Z,50
2023-05-01T17:00:31.000Z,45
2023-05-01T17:01:46.000Z,45
2023-05-01T17:03:00.000Z,39
2023-05-01T17:04:14.000Z,39
2023-05-01T17:05:29.000Z,33
2023-05-01T17:06:43.000Z,33
2023-05-01T17:07:58.000Z,28
2023-05-01T17:09:12.000Z,22
2023-05-01T17:10:26.000Z,22
2023-05-01T17:11:41.000Z,22
2023-05-01T17:12:55.000Z,16
2023-05-01T17:14:10.000Z,16
2023-05-01T17:15:24.000Z,16
2023-05-01T17:16:39.000Z,16
2023-05-01T17:17:53.000Z,16
2023-05-01T17:19:07.877Z,22
2023-05-01T17:20:21.000Z,22
2023-05-01T17:22:50.000Z,22
2023-05-01T17:24:04.000Z,22
2023-05-01T17:25:19.000Z,22
2023-05-01T17:26:33.000Z,22
2023-05-01T17:27:47.000Z,28
2023-05-01T17:29:02.000Z,28
2023-05-01T17:30:16.000Z,28
2023-05-01T17:31:31.000Z,22
2023-05-01T17:32:45.000Z,22
2023-05-01T17:33:59.000Z,22
2023-05-01T17:35:14.000Z,16
2023-05-01T17:36:28.000Z,16
2023-05-01T17:37:43.000Z,16
2023-05-01T17:38:56.000Z,16
2023-05-01T17:40:11.000Z,16
2023-05-01T17:41:25.562Z,16
2023-05-01T17:42:39.972Z,16
2023-05-01T17:43:54.000Z,16
2023-05-01T17:45:08.000Z,16
2023-05-01T17:46:23.000Z,16
2023-05-01T17:47:37.000Z,16
2023-05-01T17:48:52.000Z,16
2023-05-01T17:50:06.000Z,11
2023-05-01T17:51:20.000Z,11
2023-05-01T17:52:35.000Z,11
2023-05-01T17:53:49.690Z,11
2023-05-01T17:55:03.000Z,11
2023-05-01T17:56:17.000Z,11